Sierras Bayas, Argentina
Current Conditions -  °F | °C
As of 9:00 PM on Wednesday 28 Jan 2015 (Local Time) from SAZM Reporting Station
Scattered Clouds Scattered Clouds  
Wind Chill: 64°   Ceiling: Unl
Heat Index: 64°   Visibility: 6mi
Dew Point: 52°   Wind: 8mph
Humidity: 64%   Direction: 180°S
Pressure: 30"   Gusts: NA
Location:  36.95°S, 60.15°W
Report Text: SAZM 290000Z 18007KT 9999 SCT030 SCT20018/11 Q1016
Loading
Personal Weather Stations






























Interactive Weather Map New forecast layout! Learn more

10-Day Weather Forecast

Advertisements
Track Severe Weather on mobile